Details From TNCB - Bonaire Flamingo
To TNCM - St Maarten - Princess Juliana Intl
Flight Number -
Tags decoded
Created
Modified
Stats Distance 479 nm / 887 km
Max Altitude 0 ft / 0 m
Waypoints 9
Social Downloads 2
Likes 0
Share

Download

Looking for another format? Having issues loading an existing format? Contact us
Advertisement - Login to hide

Notes

Requested: TNCB SINDA UA516 SILVA A516 DANDE TNCM Unmatched points: UA516

Route

TNCB SINDA SILVA A516 DANDE TNCM

ID Type Via Altitude (ft/m) Position (lat/lon) Dist (leg/tot) Name
O TNCB APT - 0 / 0 12.13105 / -68.26851 - / 0 nm Bonaire Flamingo
SINDA FIX - 0 / 0 12.81639 / -68.37383 41 / 41 nm
SILVA FIX - 0 / 0 14.45556 / -66.67139 139 / 181 nm
MILOK FIX A516 (AWY-LO) 0 / 0 15.29333 / -65.88000 68 / 249 nm
RAYAS FIX A516 (AWY-HI) 0 / 0 15.68786 / -65.48857 32 / 282 nm
ANNER FIX A516 (AWY-LO) 0 / 0 16.23669 / -64.94299 45 / 327 nm
PORQE FIX A516 (AWY-HI) 0 / 0 17.15999 / -64.01449 76 / 404 nm
DANDE FIX A516 (AWY-HI) 0 / 0 17.50419 / -63.66467 28 / 433 nm
O TNCM APT - 0 / 0 18.04089 / -63.10897 45 / 479 nm St Maarten - Princess Juliana Intl

Altitude Profile

Advertisement - Login to hide

Weather


0- 5 10 15 20 25 30 35+ Temperature / °C

Clouds and Precipitation
Forecast for 2020-08-08 18:00 UTC. Updated 5 hours ago

Ground ~20,000 ft ~40,000 ft Winds

TNCB

Details ICAO TNCB (BON)
Name Bonaire Flamingo
Region Caribbean Netherlands, Aruba, Curaçao, Sint Maarten
Timezone America/Curacao (UTC-4.0)
Stats Elevation 20 ft / 6 m (AMSL)
Location 12.131000° -68.268500°
Runways 1
Magnetic Variation 11.946° W

METAR

TNCB 081955Z AUTO 09016KT 060V120 9999 NSC 29/24 Q1011

Decode

TAF

TAF TAF TNCB 081658Z 0818/0924 09014KT 9999 SCT020 PROB30 TEMPO 0818/0916 10017G27KT 5000 SHRA TSRA SCT014CB

Decode

Departure Runways

ID Width Length Bearing (true/mag) Surface Threshold Overrun Markings Lighting
10 148 ft / 45 m 9,451 ft / 2,881 m 91.75° / 103.70° ASPHALT 0 ft / 0 m 0 ft / 0 m APP EDGE THRESHOLD SSALF
28 148 ft / 45 m 9,451 ft / 2,881 m 271.75° / 283.70° ASPHALT 0 ft / 0 m 200 ft / 61 m APP EDGE THRESHOLD

TNCM

Details ICAO TNCM (SXM)
Name Princess Juliana Intl
Region Caribbean Netherlands, Aruba, Curaçao, Sint Maarten
Timezone Unknown
Stats Elevation 14 ft / 4 m (AMSL)
Location 18.040900° -63.108900°
Runways 1
Magnetic Variation 14.398° W

METAR

TNCM 081900Z 05013KT 9999 BKN020 31/24 Q1018 NOSIG

Decode

TAF

TAF TAF AMD TNCM 082027Z 0820/0918 06014KT P6SM VCSH SCT018 SCT025 TEMPO 0820/0821 BKN020 FM082230 07009KT P6SM FEW019 FEW035 FM090300 08006KT P6SM VCSH SCT018 SCT035 FM091400 09012KT P6SM SCT022

Decode

Destination Runways

ID Width Length Bearing (true/mag) Surface Threshold Overrun Markings Lighting
10 148 ft / 45 m 7,553 ft / 2,302 m 81.44° / 95.84° ASPHALT 331 ft / 101 m 164 ft / 50 m PREC-APP EDGE THRESHOLD REIL-OMNI
28 148 ft / 45 m 7,553 ft / 2,302 m 261.45° / 275.84° ASPHALT 0 ft / 0 m 200 ft / 61 m APP EDGE THRESHOLD

Popular Alternatives